createdAt,value
2018-05-21T00:01:39.570Z,2.03
2018-05-21T00:04:07.334Z,2.37
2018-05-21T00:06:35.201Z,2.57
2018-05-21T00:09:03.071Z,2.87
2018-05-21T00:11:30.937Z,2.57
2018-05-21T00:13:58.656Z,2.70
2018-05-21T00:16:26.464Z,3.30
2018-05-21T00:18:54.185Z,2.57
2018-05-21T00:21:21.894Z,2.40
2018-05-21T00:23:49.655Z,2.50
2018-05-21T00:26:17.522Z,3.00
2018-05-21T00:28:45.232Z,2.13
2018-05-21T00:31:13.053Z,1.90
2018-05-21T00:33:40.712Z,2.13
2018-05-21T00:36:08.580Z,2.07
2018-05-21T00:38:36.325Z,1.93
2018-05-21T00:41:04.104Z,2.60
2018-05-21T00:43:31.829Z,3.30
2018-05-21T00:45:59.640Z,3.37
2018-05-21T00:48:27.403Z,3.60
2018-05-21T00:50:55.271Z,3.80
2018-05-21T00:53:22.995Z,3.70
2018-05-21T00:55:50.692Z,3.70
2018-05-21T00:58:18.350Z,3.57
2018-05-21T01:00:46.071Z,2.83
2018-05-21T01:03:13.888Z,2.63
2018-05-21T01:05:41.550Z,2.87
2018-05-21T01:08:10.033Z,2.50
2018-05-21T01:10:37.737Z,3.20
2018-05-21T01:13:05.504Z,3.50
2018-05-21T01:15:33.247Z,3.40
2018-05-21T01:18:01.090Z,2.60
2018-05-21T01:20:28.857Z,2.63
2018-05-21T01:22:56.721Z,2.27
2018-05-21T01:25:24.382Z,1.90
2018-05-21T01:27:52.150Z,1.57
2018-05-21T01:30:19.870Z,1.53
2018-05-21T01:32:47.676Z,2.00
2018-05-21T01:35:15.441Z,2.27
2018-05-21T01:37:43.309Z,1.77
2018-05-21T01:40:11.063Z,1.67
2018-05-21T01:42:38.837Z,1.60
2018-05-21T01:45:06.498Z,1.40
2018-05-21T01:47:34.213Z,1.43
2018-05-21T01:50:02.029Z,1.60
2018-05-21T01:52:29.895Z,1.23
2018-05-21T01:54:57.660Z,1.33
2018-05-21T01:57:25.527Z,1.30
2018-05-21T01:59:53.396Z,1.57
2018-05-21T02:02:21.055Z,1.33
2018-05-21T02:04:48.820Z,1.33
2018-05-21T02:07:16.524Z,1.50
2018-05-21T02:09:44.349Z,1.40
2018-05-21T02:12:12.056Z,1.50
2018-05-21T02:14:39.875Z,1.53
2018-05-21T02:17:07.642Z,2.03
2018-05-21T02:19:35.357Z,2.07
2018-05-21T02:22:03.171Z,1.43
2018-05-21T02:24:30.944Z,1.83
2018-05-21T02:26:58.676Z,1.80
2018-05-21T02:29:26.466Z,1.70
2018-05-21T02:31:54.126Z,1.90
2018-05-21T02:34:21.998Z,1.67
2018-05-21T02:36:49.757Z,1.60
2018-05-21T02:39:17.630Z,2.10
2018-05-21T02:41:45.395Z,1.77
2018-05-21T02:44:13.257Z,1.90
2018-05-21T02:46:40.966Z,2.30
2018-05-21T02:49:08.783Z,2.77
2018-05-21T02:51:36.499Z,2.30
2018-05-21T02:54:04.368Z,2.67
2018-05-21T02:56:32.181Z,2.60
2018-05-21T02:58:59.999Z,2.60
2018-05-21T03:01:27.812Z,2.77
2018-05-21T03:03:55.576Z,2.53
2018-05-21T03:06:23.235Z,2.60
2018-05-21T03:08:51.106Z,2.37
2018-05-21T03:11:18.764Z,1.90
2018-05-21T03:13:46.429Z,1.87
2018-05-21T03:16:14.194Z,2.03
2018-05-21T03:18:41.959Z,1.70
2018-05-21T03:21:09.674Z,2.03
2018-05-21T03:23:37.487Z,2.00
2018-05-21T03:26:05.253Z,1.70
2018-05-21T03:28:32.915Z,1.90
2018-05-21T03:31:00.786Z,1.70
2018-05-21T03:33:28.508Z,1.67
2018-05-21T03:35:56.311Z,1.43
2018-05-21T03:38:24.080Z,2.40
2018-05-21T03:40:51.839Z,1.70
2018-05-21T03:43:19.604Z,2.53
2018-05-21T03:45:47.418Z,2.50
2018-05-21T03:48:15.133Z,2.23
2018-05-21T03:50:43.000Z,3.20
2018-05-21T03:53:10.717Z,2.20
2018-05-21T03:55:38.529Z,2.90
2018-05-21T03:58:06.396Z,2.83
2018-05-21T04:03:55.387Z,3.20
2018-05-21T04:06:23.201Z,2.97
2018-05-21T04:08:50.913Z,2.93
2018-05-21T04:11:18.776Z,3.20
2018-05-21T04:13:46.538Z,3.30
2018-05-21T04:16:14.405Z,2.70
2018-05-21T04:18:42.143Z,3.60
2018-05-21T04:21:09.934Z,2.97
2018-05-21T04:23:37.599Z,2.70
2018-05-21T04:26:05.464Z,2.50
2018-05-21T04:28:33.178Z,3.00
2018-05-21T04:31:00.949Z,2.70
2018-05-21T04:33:28.655Z,2.90
2018-05-21T04:35:56.419Z,2.63
2018-05-21T04:38:24.184Z,2.83
2018-05-21T04:40:51.886Z,3.10
2018-05-21T04:43:19.504Z,2.70
2018-05-21T04:45:47.273Z,2.47
2018-05-21T04:48:15.138Z,3.10
2018-05-21T04:50:42.904Z,2.50
2018-05-21T04:53:10.570Z,2.47
2018-05-21T04:55:38.234Z,2.80
2018-05-21T04:58:06.054Z,2.23
2018-05-21T05:00:33.759Z,3.67
2018-05-21T05:03:01.418Z,3.43
2018-05-21T05:05:29.131Z,3.20
2018-05-21T05:07:56.949Z,3.00
2018-05-21T05:10:24.717Z,2.47
2018-05-21T05:12:52.580Z,2.87
2018-05-21T05:15:20.296Z,2.63
2018-05-21T05:17:48.111Z,2.57
2018-05-21T05:20:15.830Z,3.00
2018-05-21T05:22:43.535Z,2.60
2018-05-21T05:25:11.302Z,2.73
2018-05-21T05:27:39.170Z,2.70
2018-05-21T05:30:06.819Z,2.47
2018-05-21T05:32:34.696Z,2.63
2018-05-21T05:35:02.406Z,2.27
2018-05-21T05:37:30.225Z,2.90
2018-05-21T05:39:57.965Z,2.70
2018-05-21T05:42:25.652Z,3.13
2018-05-21T05:44:53.417Z,3.43
2018-05-21T05:47:21.282Z,2.73
2018-05-21T05:49:49.008Z,2.77
2018-05-21T05:52:16.811Z,2.80
2018-05-21T05:54:44.665Z,2.87
2018-05-21T05:57:12.383Z,2.97
2018-05-21T05:59:40.202Z,2.70
2018-05-21T06:02:07.918Z,1.70
2018-05-21T06:04:35.734Z,2.30
2018-05-21T06:07:03.500Z,2.50
2018-05-21T06:09:31.267Z,3.10
2018-05-21T06:11:58.984Z,3.00
2018-05-21T06:14:26.691Z,3.60
2018-05-21T06:16:54.457Z,3.20
2018-05-21T06:19:22.102Z,3.53
2018-05-21T06:21:49.808Z,3.20
2018-05-21T06:24:17.647Z,3.00
2018-05-21T06:26:59.874Z,1.70
2018-05-21T06:29:27.755Z,3.17
2018-05-21T06:31:55.411Z,3.10
2018-05-21T06:34:23.376Z,3.30
2018-05-21T06:36:51.001Z,3.10
2018-05-21T06:39:18.776Z,3.50
2018-05-21T06:41:46.390Z,3.50
2018-05-21T06:44:14.095Z,2.03
2018-05-21T06:46:41.818Z,3.10
2018-05-21T06:49:09.634Z,2.50
2018-05-21T06:51:37.395Z,3.07
2018-05-21T06:54:05.220Z,3.17
2018-05-21T06:56:32.915Z,3.30
2018-05-21T06:59:00.626Z,3.70
2018-05-21T07:01:28.444Z,2.10
2018-05-21T07:03:56.215Z,3.27
2018-05-21T07:08:57.787Z,2.00
2018-05-21T07:11:25.552Z,3.07
2018-05-21T07:13:53.253Z,2.40
2018-05-21T07:16:20.979Z,3.70
2018-05-21T07:18:48.639Z,3.13
2018-05-21T07:21:16.300Z,3.20
2018-05-21T07:23:44.065Z,3.17
2018-05-21T07:26:11.935Z,2.57
2018-05-21T07:28:39.697Z,2.97
2018-05-21T07:31:07.707Z,3.40
2018-05-21T07:33:35.743Z,2.30
2018-05-21T07:36:03.853Z,3.77
2018-05-21T07:38:31.572Z,2.73
2018-05-21T07:40:59.340Z,2.50
2018-05-21T07:43:27.278Z,3.53
2018-05-21T07:45:55.073Z,3.50
2018-05-21T07:48:22.840Z,1.67
2018-05-21T07:50:50.604Z,3.00
2018-05-21T07:53:18.323Z,2.37
2018-05-21T07:55:46.024Z,1.73
2018-05-21T07:58:17.131Z,3.43
2018-05-21T08:00:44.826Z,3.47
2018-05-21T08:03:12.542Z,2.67
2018-05-21T08:05:40.255Z,2.50
2018-05-21T08:08:07.951Z,3.67
2018-05-21T08:10:35.687Z,4.00
2018-05-21T08:13:03.351Z,3.63
2018-05-21T08:15:31.015Z,2.80
2018-05-21T08:17:58.879Z,4.03
2018-05-21T08:20:26.651Z,4.20
2018-05-21T08:22:54.510Z,3.70
2018-05-21T08:25:22.219Z,4.33
2018-05-21T08:27:50.039Z,3.20
2018-05-21T08:30:17.806Z,3.90
2018-05-21T08:32:45.468Z,2.63
2018-05-21T08:35:13.436Z,3.57
2018-05-21T08:37:41.200Z,3.10
2018-05-21T08:40:08.965Z,3.57
2018-05-21T08:42:36.641Z,2.40
2018-05-21T08:45:04.390Z,3.72
2018-05-21T08:47:32.051Z,2.93
2018-05-21T08:49:59.816Z,4.03
2018-05-21T08:52:27.645Z,4.30
2018-05-21T08:54:55.228Z,3.03
2018-05-21T08:57:22.883Z,4.13
2018-05-21T08:59:50.626Z,3.80
2018-05-21T09:02:18.436Z,3.97
2018-05-21T09:04:46.237Z,3.80
2018-05-21T09:07:14.030Z,4.20
2018-05-21T09:09:41.832Z,4.23
2018-05-21T09:12:09.540Z,4.50
2018-05-21T09:14:37.360Z,4.07
2018-05-21T09:17:05.074Z,4.40
2018-05-21T09:19:32.785Z,3.80
2018-05-21T09:22:00.519Z,5.00
2018-05-21T09:24:28.316Z,4.27
2018-05-21T09:26:55.970Z,4.13
2018-05-21T09:29:23.640Z,3.40
2018-05-21T09:31:51.405Z,3.00
2018-05-21T09:34:19.069Z,2.90
2018-05-21T09:36:46.784Z,3.90
2018-05-21T09:39:14.488Z,4.20
2018-05-21T09:41:42.155Z,4.50
2018-05-21T09:44:09.915Z,3.87
2018-05-21T09:46:37.580Z,3.23
2018-05-21T09:49:05.346Z,4.17
2018-05-21T09:51:33.077Z,4.47
2018-05-21T09:54:00.768Z,4.43
2018-05-21T09:56:28.435Z,3.00
2018-05-21T09:58:56.303Z,3.67
2018-05-21T10:01:24.005Z,3.40
2018-05-21T10:03:51.824Z,2.93
2018-05-21T10:06:19.595Z,3.57
2018-05-21T10:08:47.360Z,2.43
2018-05-21T10:11:15.125Z,1.87
2018-05-21T10:13:42.890Z,2.73
2018-05-21T10:16:10.765Z,3.20
2018-05-21T10:18:38.625Z,3.30
2018-05-21T10:21:06.391Z,3.57
2018-05-21T10:23:34.256Z,3.50
2018-05-21T10:26:01.988Z,3.17
2018-05-21T10:28:29.786Z,1.60
2018-05-21T10:30:57.520Z,3.50
2018-05-21T10:33:25.819Z,4.10
2018-05-21T10:35:53.486Z,4.53
2018-05-21T10:38:21.251Z,3.90
2018-05-21T10:40:48.907Z,4.20
2018-05-21T10:43:17.032Z,2.87
2018-05-21T10:45:44.749Z,3.90
2018-05-21T10:48:12.513Z,3.73
2018-05-21T10:50:40.176Z,3.40
2018-05-21T10:53:08.043Z,2.30
2018-05-21T10:55:35.808Z,3.50
2018-05-21T10:58:03.462Z,2.97
2018-05-21T11:00:31.234Z,3.40
2018-05-21T11:02:59.005Z,3.43
2018-05-21T11:05:26.760Z,4.07
2018-05-21T11:07:54.425Z,4.20
2018-05-21T11:10:22.191Z,3.90
2018-05-21T11:12:49.897Z,2.97
2018-05-21T11:15:17.615Z,3.73
2018-05-21T11:17:45.283Z,2.40
2018-05-21T11:20:13.044Z,3.33
2018-05-21T11:22:40.767Z,4.10
2018-05-21T11:25:08.469Z,3.37
2018-05-21T11:27:36.233Z,3.20
2018-05-21T11:30:04.103Z,3.80
2018-05-21T11:32:31.794Z,4.70
2018-05-21T11:34:59.525Z,3.80
2018-05-21T11:37:27.293Z,4.27
2018-05-21T11:39:55.161Z,3.73
2018-05-21T11:42:22.772Z,3.37
2018-05-21T11:44:50.587Z,2.23
2018-05-21T11:47:18.244Z,3.13
2018-05-21T11:49:46.115Z,3.27
2018-05-21T11:52:13.771Z,3.30
2018-05-21T11:54:41.588Z,3.10
2018-05-21T11:57:09.408Z,2.17
2018-05-21T11:59:37.275Z,3.20
2018-05-21T12:02:05.038Z,1.50
2018-05-21T12:04:32.701Z,3.13
2018-05-21T12:07:00.466Z,3.37
2018-05-21T12:09:28.188Z,3.10
2018-05-21T12:11:55.995Z,2.77
2018-05-21T12:14:23.698Z,2.10
2018-05-21T12:16:51.422Z,3.90
2018-05-21T12:19:19.231Z,3.20
2018-05-21T12:21:47.058Z,2.20
2018-05-21T12:24:14.916Z,1.60
2018-05-21T12:26:42.583Z,3.50
2018-05-21T12:29:10.305Z,2.37
2018-05-21T12:31:38.112Z,3.30
2018-05-21T12:34:05.833Z,3.10
2018-05-21T12:36:33.641Z,3.40
2018-05-21T12:39:01.514Z,2.30
2018-05-21T12:41:29.235Z,2.73
2018-05-21T12:43:57.139Z,3.30
2018-05-21T12:46:25.007Z,3.73
2018-05-21T12:48:52.874Z,4.30
2018-05-21T12:51:20.527Z,2.30
2018-05-21T12:53:48.299Z,4.00
2018-05-21T12:56:16.065Z,3.37
2018-05-21T12:58:43.931Z,3.20
2018-05-21T13:01:11.670Z,2.20
2018-05-21T13:03:39.460Z,3.27
2018-05-21T13:06:07.224Z,2.30
2018-05-21T13:08:34.878Z,3.30
2018-05-21T13:11:02.544Z,3.90
2018-05-21T13:13:30.209Z,3.07
2018-05-21T13:15:58.078Z,3.53
2018-05-21T13:18:25.841Z,2.97
2018-05-21T13:20:53.708Z,3.67
2018-05-21T13:23:21.474Z,3.43
2018-05-21T13:25:49.340Z,3.03
2018-05-21T13:28:17.058Z,3.67
2018-05-21T13:30:44.759Z,4.20
2018-05-21T13:33:12.492Z,3.10
2018-05-21T13:35:40.296Z,3.33
2018-05-21T13:38:08.052Z,3.83
2018-05-21T13:40:35.722Z,3.40
2018-05-21T13:43:03.488Z,3.67
2018-05-21T13:45:31.353Z,3.30
2018-05-21T13:47:59.069Z,3.07
2018-05-21T13:50:26.837Z,2.60
2018-05-21T13:52:54.648Z,1.10
2018-05-21T13:55:22.416Z,2.23
2018-05-21T13:57:50.177Z,3.90
2018-05-21T14:00:17.906Z,2.90
2018-05-21T14:02:45.775Z,3.60
2018-05-21T14:05:13.576Z,3.33
2018-05-21T14:07:41.337Z,3.13
2018-05-21T14:10:09.048Z,3.40
2018-05-21T14:12:36.790Z,3.37
2018-05-21T14:15:04.527Z,3.40
2018-05-21T14:17:32.293Z,2.70
2018-05-21T14:20:00.019Z,2.80
2018-05-21T14:22:27.827Z,3.70
2018-05-21T14:24:55.692Z,3.50
2018-05-21T14:27:23.350Z,3.87
2018-05-21T14:29:51.272Z,3.03
2018-05-21T14:32:18.981Z,3.37
2018-05-21T14:34:46.844Z,3.50
2018-05-21T14:37:14.561Z,3.87
2018-05-21T14:39:42.268Z,3.10
2018-05-21T14:42:10.040Z,2.50
2018-05-21T14:44:37.906Z,2.40
2018-05-21T14:47:05.673Z,2.40
2018-05-21T14:49:33.538Z,3.17
2018-05-21T14:52:01.262Z,3.10
2018-05-21T14:54:29.067Z,3.60
2018-05-21T14:56:56.832Z,4.17
2018-05-21T14:59:24.636Z,3.23
2018-05-21T15:01:52.465Z,3.90
2018-05-21T15:04:20.228Z,3.70
2018-05-21T15:06:47.941Z,3.03
2018-05-21T15:09:15.756Z,3.60
2018-05-21T15:11:43.522Z,3.57
2018-05-21T15:14:11.182Z,3.73
2018-05-21T15:16:38.910Z,3.63
2018-05-21T15:19:06.715Z,3.50
2018-05-21T15:21:34.579Z,4.03
2018-05-21T15:24:02.344Z,3.30
2018-05-21T15:26:30.110Z,4.10
2018-05-21T15:28:57.873Z,3.20
2018-05-21T15:31:25.533Z,3.87
2018-05-21T15:33:53.300Z,3.30
2018-05-21T15:36:21.066Z,3.10
2018-05-21T15:38:48.830Z,3.37
2018-05-21T15:41:16.696Z,3.83
2018-05-21T15:43:44.397Z,3.27
2018-05-21T15:46:12.214Z,3.53
2018-05-21T15:48:40.028Z,3.60
2018-05-21T15:51:07.850Z,3.00
2018-05-21T15:53:35.518Z,3.30
2018-05-21T15:56:03.334Z,3.40
2018-05-21T15:58:31.046Z,3.60
2018-05-21T16:00:58.811Z,4.00
2018-05-21T16:03:26.509Z,3.43
2018-05-21T16:05:54.326Z,3.60
2018-05-21T16:08:22.002Z,3.40
2018-05-21T16:10:49.869Z,3.63
2018-05-21T16:13:17.527Z,3.70
2018-05-21T16:15:45.166Z,3.27
2018-05-21T16:18:12.856Z,3.20
2018-05-21T16:20:40.584Z,3.23
2018-05-21T16:23:08.383Z,3.23
2018-05-21T16:25:36.251Z,3.03
2018-05-21T16:28:04.009Z,3.73
2018-05-21T16:30:32.257Z,3.57
2018-05-21T16:33:00.058Z,3.63
2018-05-21T16:35:27.767Z,2.23
2018-05-21T16:37:55.693Z,3.50
2018-05-21T16:40:23.556Z,3.47
2018-05-21T16:42:51.222Z,3.20
2018-05-21T16:45:18.877Z,2.90
2018-05-21T16:47:46.717Z,2.90
2018-05-21T16:50:14.510Z,3.90
2018-05-21T16:52:42.546Z,2.97
2018-05-21T16:55:10.794Z,3.77
2018-05-21T16:57:38.831Z,3.50
2018-05-21T17:00:06.502Z,3.57
2018-05-21T17:02:34.347Z,3.73
2018-05-21T17:05:02.628Z,3.63
2018-05-21T17:07:30.353Z,3.53
2018-05-21T17:09:58.163Z,3.23
2018-05-21T17:12:25.863Z,2.60
2018-05-21T17:14:53.584Z,3.20
2018-05-21T17:17:21.251Z,3.53
2018-05-21T17:19:49.170Z,3.50
2018-05-21T17:22:16.978Z,3.43
2018-05-21T17:24:44.640Z,3.57
2018-05-21T17:27:12.366Z,3.80
2018-05-21T17:29:40.080Z,3.87
2018-05-21T17:32:08.091Z,3.30
2018-05-21T17:34:35.696Z,3.47
2018-05-21T17:37:03.364Z,3.93
2018-05-21T17:39:31.027Z,3.53
2018-05-21T17:41:58.792Z,3.60
2018-05-21T17:44:26.764Z,3.90
2018-05-21T17:46:54.477Z,3.77
2018-05-21T17:49:22.182Z,3.80
2018-05-21T17:51:50.029Z,3.53
2018-05-21T17:54:17.617Z,3.50
2018-05-21T17:56:45.279Z,3.60
2018-05-21T17:59:12.938Z,4.00
2018-05-21T18:01:40.601Z,3.43
2018-05-21T18:04:08.367Z,3.83
2018-05-21T18:06:36.018Z,3.50
2018-05-21T18:09:03.792Z,3.30
2018-05-21T18:11:31.452Z,3.53
2018-05-21T18:13:59.118Z,3.70
2018-05-21T18:16:26.887Z,3.60
2018-05-21T18:18:54.749Z,3.90
2018-05-21T18:21:22.549Z,3.50
2018-05-21T18:23:50.276Z,3.70
2018-05-21T18:26:18.047Z,3.53
2018-05-21T18:28:45.706Z,3.47
2018-05-21T18:31:13.562Z,4.13
2018-05-21T18:33:41.279Z,4.07
2018-05-21T18:36:09.096Z,3.73
2018-05-21T18:38:36.867Z,3.50
2018-05-21T18:41:04.528Z,3.50
2018-05-21T18:43:32.130Z,4.03
2018-05-21T18:46:04.668Z,4.30
2018-05-21T18:48:32.630Z,4.43
2018-05-21T18:51:00.399Z,4.03
2018-05-21T18:53:28.164Z,4.53
2018-05-21T18:55:56.033Z,5.00
2018-05-21T18:58:23.804Z,4.47
2018-05-21T19:00:51.665Z,5.23
2018-05-21T19:03:19.531Z,4.77
2018-05-21T19:05:47.298Z,4.63
2018-05-21T19:08:15.017Z,4.67
2018-05-21T19:10:42.825Z,4.77
2018-05-21T19:13:10.588Z,4.90
2018-05-21T19:15:38.252Z,4.70
2018-05-21T19:18:05.903Z,4.30
2018-05-21T19:20:34.405Z,4.33
2018-05-21T19:23:02.098Z,4.00
2018-05-21T19:25:29.814Z,3.90
2018-05-21T19:27:57.431Z,4.13
2018-05-21T19:30:25.246Z,4.93
2018-05-21T19:32:52.988Z,4.20
2018-05-21T19:35:20.776Z,4.43
2018-05-21T19:37:48.437Z,4.10
2018-05-21T19:40:16.158Z,4.20
2018-05-21T19:42:43.967Z,3.70
2018-05-21T19:45:11.847Z,4.70
2018-05-21T19:47:39.594Z,4.50
2018-05-21T19:50:07.681Z,5.00
2018-05-21T19:52:35.433Z,4.83
2018-05-21T19:55:03.091Z,5.20
2018-05-21T19:57:30.757Z,5.13
2018-05-21T19:59:58.583Z,4.30
2018-05-21T20:02:26.390Z,5.00
2018-05-21T20:04:54.047Z,4.90
2018-05-21T20:07:21.902Z,4.43
2018-05-21T20:09:49.486Z,4.43
2018-05-21T20:12:17.237Z,4.73
2018-05-21T20:14:45.052Z,5.37
2018-05-21T20:17:12.877Z,5.00
2018-05-21T20:19:40.531Z,4.97
2018-05-21T20:22:08.254Z,4.70
2018-05-21T20:24:36.067Z,5.10
2018-05-21T20:27:03.812Z,5.13
2018-05-21T20:29:31.579Z,4.83
2018-05-21T20:31:59.360Z,5.20
2018-05-21T20:34:27.230Z,5.80
2018-05-21T20:36:54.992Z,4.80
2018-05-21T20:39:22.956Z,5.90
2018-05-21T20:41:50.615Z,5.70
2018-05-21T20:44:18.391Z,5.10
2018-05-21T20:46:46.097Z,5.17
2018-05-21T20:49:13.915Z,5.50
2018-05-21T20:51:41.580Z,4.63
2018-05-21T20:54:09.348Z,4.43
2018-05-21T20:56:37.077Z,4.83
2018-05-21T20:59:04.870Z,5.27
2018-05-21T21:01:32.533Z,4.67
2018-05-21T21:04:00.186Z,5.10
2018-05-21T21:06:27.850Z,5.87
2018-05-21T21:08:55.551Z,5.40
2018-05-21T21:11:23.284Z,5.10
2018-05-21T21:13:50.922Z,4.50
2018-05-21T21:16:18.711Z,5.07
2018-05-21T21:18:46.419Z,5.23
2018-05-21T21:21:14.239Z,5.40
2018-05-21T21:23:42.007Z,4.70
2018-05-21T21:26:09.872Z,5.33
2018-05-21T21:28:37.635Z,4.80
2018-05-21T21:31:05.402Z,4.50
2018-05-21T21:33:33.269Z,5.50
2018-05-21T21:36:01.038Z,4.37
2018-05-21T21:38:28.753Z,4.67
2018-05-21T21:40:56.561Z,5.03
2018-05-21T21:43:24.328Z,4.63
2018-05-21T21:45:52.193Z,4.53
2018-05-21T21:48:19.854Z,4.47
2018-05-21T21:50:47.620Z,5.10
2018-05-21T21:53:15.333Z,4.50
2018-05-21T21:55:43.149Z,4.27
2018-05-21T21:58:10.811Z,4.90
2018-05-21T22:00:38.632Z,4.80
2018-05-21T22:03:06.442Z,4.30
2018-05-21T22:05:34.207Z,4.47
2018-05-21T22:08:01.933Z,4.83
2018-05-21T22:10:30.045Z,4.43
2018-05-21T22:12:58.017Z,4.43
2018-05-21T22:15:25.777Z,4.53
2018-05-21T22:17:53.499Z,5.17
2018-05-21T22:20:21.202Z,4.97
2018-05-21T22:22:48.968Z,5.07
2018-05-21T22:25:16.629Z,4.90
2018-05-21T22:27:44.291Z,5.63
2018-05-21T22:30:12.056Z,5.13
2018-05-21T22:32:39.717Z,5.13
2018-05-21T22:35:07.388Z,5.50
2018-05-21T22:37:35.246Z,5.30
2018-05-21T22:40:02.952Z,5.70
2018-05-21T22:42:30.725Z,4.90
2018-05-21T22:44:58.488Z,5.70
2018-05-21T22:47:26.203Z,5.40
2018-05-21T22:49:53.970Z,5.40
2018-05-21T22:52:21.735Z,5.00
2018-05-21T22:54:49.496Z,4.80
2018-05-21T22:57:17.366Z,5.40
2018-05-21T22:59:45.086Z,5.20
2018-05-21T23:02:12.829Z,5.30
2018-05-21T23:04:40.554Z,5.20
2018-05-21T23:07:08.265Z,4.93
2018-05-21T23:09:36.085Z,5.27
2018-05-21T23:12:03.797Z,4.87
2018-05-21T23:14:31.528Z,5.30
2018-05-21T23:16:59.279Z,4.83
2018-05-21T23:19:27.096Z,4.90
2018-05-21T23:21:54.804Z,6.03
2018-05-21T23:24:22.507Z,5.10
2018-05-21T23:26:50.230Z,4.87
2018-05-21T23:29:18.089Z,4.83
2018-05-21T23:31:45.758Z,5.20
2018-05-21T23:34:13.407Z,5.00
2018-05-21T23:36:41.088Z,4.50
2018-05-21T23:39:08.846Z,4.60
2018-05-21T23:41:36.551Z,5.00
2018-05-21T23:44:04.277Z,5.60
2018-05-21T23:46:31.935Z,5.40
2018-05-21T23:48:59.597Z,5.33
2018-05-21T23:51:27.363Z,5.33
2018-05-21T23:53:55.082Z,5.03
2018-05-21T23:56:22.892Z,5.70
2018-05-21T23:58:50.616Z,5.73
